Portada
METAR-TAF:

METAR-TAF

Aeropuertos :

Base áerea de Incirlik

Incirlik, Turquía

latitud: 37-00N, longitud: 035-25E, altitud: 73 m

Observación

El informe se hizo hace 27 minutos, a las 23:20 UTC
Viento 8 kt del norte-noreste
Temperatura 11°C
Humedad 100%
Presión 1012 hPa
Visibilidad 10 km o más
Cielo nuboso a una altura de 3000 ft
Cielo nuboso a una altura de 9000 ft

METAR: LTAG 132320Z 03008KT 9999 BKN030 BKN090 11/11 Q1012 NOSIG

Hora: 02:47 (23:47 UTC)

Pronóstico

El informe se hizo hace 1 hora y 7 minutos, a las 22:40 UTC
Pronóstico válido del 14 a las 00 UTC al 14 a las 24 UTC
Viento 9 kt del norte-noreste
Visibilidad 10 km o más
Cielo nuboso a una altura de 3000 ft
Cielo nuboso a una altura de 9000 ft
chaparrones de lluvia

TAF: LTAG 132240Z 1400/1424 02009KT 9999 -SHRA BKN030 BKN090

Observaciones y pronósticos meteorológicos de más de 4000 aeropuertos (mensajes METAR y TAF).

Los puntos amarillos y rojos representan las estaciones disponibles.

Ponga el ratón en el punto deseado para ver el nombre de la estación.

Haga clic para ver las observaciones y los pronósticos meteorológicos.

Para cambiar el mapa : haga clic en los botones verdes con una cruz de color negro para hacer un zoom, en el botón verde con un guión para alejar o en las flechas verdes para mapas adyacentes.


METAR-TAF: